LFLC

Clermont-Ferrand Auvergne Airport

Airport
ICAO code
LFLC
IATA Code
CFE
Summary
ICAO Region
EUR
ICAO Territory
Location

Aulnat, Auvergne

Serving
Clermont-Ferrand
Elevation
1090 ft
Coordinates
45° 47' 12" N , 3° 10' 9" E
KCC
Metar
Observation
LFLC 280230Z AUTO 17012KT 9999 BKN047/// BKN074/// OVC100/// ///TCU 10/04 Q1014 TEMPO RA BKN040
Station
Clermont-Ferrand
Date/Time
2022-11-28 02:30:00
Wind direction
170°
Wind speed
12 kts
Lowest cloud amount
broken clouds
Temperature
10°C
Dew point
4°C
Humidity
66%
QNH
1014 hPa
Weather condition
n/a

Clermont-Ferrand Auvergne Airport is an airport serving the French city of Clermont-Ferrand. It is located 6.7 km east of the city, in Aulnat.

Climatology

Temperate Oceanic climate (Köppen climate classification Cfb).

Runways

Designator Length Width Surface Rops
08L/26R 0 0 UNK No/No
8/26 3015 45 ASP Yes/Yes

Airport map

Aerial View

SKYbrary Partners:

Safety knowledge contributed by: